createdAt,value
2023-04-03T00:01:54.167Z,5.75
2023-04-03T00:06:56.397Z,5.72
2023-04-03T00:11:58.445Z,4.75
2023-04-03T00:17:00.941Z,4.70
2023-04-03T00:22:03.206Z,5.47
2023-04-03T00:27:05.269Z,4.80
2023-04-03T00:32:07.344Z,4.72
2023-04-03T00:37:09.527Z,4.90
2023-04-03T00:42:12.005Z,5.20
2023-04-03T00:47:17.544Z,5.35
2023-04-03T00:52:24.060Z,5.07
2023-04-03T00:57:26.282Z,5.05
2023-04-03T01:02:28.698Z,4.28
2023-04-03T01:07:32.304Z,3.80
2023-04-03T01:12:37.776Z,3.78
2023-04-03T01:17:50.087Z,3.33
2023-04-03T01:23:04.279Z,3.65
2023-04-03T01:28:08.843Z,3.08
2023-04-03T01:33:11.244Z,3.28
2023-04-03T01:38:13.506Z,3.20
2023-04-03T01:43:15.679Z,3.03
2023-04-03T01:48:17.734Z,3.40
2023-04-03T01:53:19.873Z,2.90
2023-04-03T01:58:22.014Z,2.90
2023-04-03T02:03:26.240Z,2.50
2023-04-03T02:08:29.109Z,3.28
2023-04-03T02:13:31.294Z,3.35
2023-04-03T02:18:33.333Z,2.92
2023-04-03T02:23:37.775Z,3.00
2023-04-03T02:28:40.674Z,3.13
2023-04-03T02:33:42.762Z,3.35
2023-04-03T02:38:46.867Z,3.10
2023-04-03T02:43:49.301Z,3.15
2023-04-03T02:48:52.332Z,2.80
2023-04-03T02:53:55.743Z,3.38
2023-04-03T02:59:02.084Z,3.80
2023-04-03T03:04:05.181Z,3.25
2023-04-03T03:09:07.356Z,2.90
2023-04-03T03:14:09.590Z,3.42
2023-04-03T03:19:11.790Z,3.90
2023-04-03T03:24:13.815Z,3.90
2023-04-03T03:29:15.893Z,3.38
2023-04-03T03:34:19.076Z,3.22
2023-04-03T03:39:21.449Z,3.55
2023-04-03T03:44:23.613Z,3.75
2023-04-03T03:49:28.693Z,3.80
2023-04-03T03:54:31.143Z,3.58
2023-04-03T03:59:33.377Z,3.35
2023-04-03T04:04:37.481Z,3.28
2023-04-03T04:09:40.658Z,3.17
2023-04-03T04:14:47.525Z,3.63
2023-04-03T04:19:51.392Z,3.20
2023-04-03T04:24:53.722Z,3.45
2023-04-03T04:29:56.647Z,3.58
2023-04-03T04:34:59.758Z,3.90
2023-04-03T04:40:04.092Z,3.25
2023-04-03T04:45:07.080Z,3.33
2023-04-03T04:50:09.971Z,3.10
2023-04-03T04:55:13.055Z,3.35
2023-04-03T05:00:16.388Z,3.55
2023-04-03T05:05:18.791Z,3.30
2023-04-03T05:10:21.533Z,3.00
2023-04-03T05:15:23.919Z,3.40
2023-04-03T05:20:26.266Z,3.10
2023-04-03T05:25:28.565Z,2.88
2023-04-03T05:30:32.287Z,2.78
2023-04-03T05:35:40.279Z,2.80
2023-04-03T05:40:44.603Z,3.20
2023-04-03T05:45:48.798Z,2.75
2023-04-03T05:50:51.628Z,2.90
2023-04-03T05:55:58.824Z,2.47
2023-04-03T06:01:02.477Z,3.05
2023-04-03T06:06:05.918Z,2.97
2023-04-03T06:11:09.705Z,2.90
2023-04-03T06:16:16.187Z,2.40
2023-04-03T06:21:18.319Z,2.90
2023-04-03T06:26:21.694Z,3.30
2023-04-03T06:31:24.057Z,2.70
2023-04-03T06:36:26.526Z,2.70
2023-04-03T06:41:28.590Z,2.83
2023-04-03T06:46:31.331Z,2.70
2023-04-03T06:51:34.130Z,2.97
2023-04-03T06:56:36.675Z,3.30
2023-04-03T07:01:39.079Z,2.63
2023-04-03T07:06:41.320Z,2.60
2023-04-03T07:11:43.370Z,2.90
2023-04-03T07:16:45.593Z,2.67
2023-04-03T07:21:48.033Z,2.40
2023-04-03T07:26:51.860Z,2.42
2023-04-03T07:31:54.152Z,2.55
2023-04-03T07:36:56.203Z,2.50
2023-04-03T07:41:58.309Z,2.50
2023-04-03T07:47:00.813Z,2.40
2023-04-03T07:52:04.428Z,2.20
2023-04-03T07:57:07.865Z,2.60
2023-04-03T08:02:11.378Z,2.30
2023-04-03T08:07:13.448Z,2.72
2023-04-03T08:12:15.863Z,2.22
2023-04-03T08:17:17.923Z,2.40
2023-04-03T08:22:19.990Z,1.90
2023-04-03T08:27:22.899Z,2.33
2023-04-03T08:32:25.266Z,2.03
2023-04-03T08:37:27.538Z,2.13
2023-04-03T08:42:58.148Z,2.08
2023-04-03T08:48:13.146Z,2.10
2023-04-03T08:53:18.239Z,1.90
2023-04-03T08:58:26.852Z,1.60
2023-04-03T09:03:32.002Z,1.60
2023-04-03T09:08:41.349Z,1.30
2023-04-03T09:13:49.596Z,1.77
2023-04-03T09:19:16.826Z,1.40
2023-04-03T09:24:19.506Z,1.45
2023-04-03T09:29:25.429Z,1.00
2023-04-03T09:34:37.540Z,1.10
2023-04-03T09:39:56.121Z,1.02
2023-04-03T09:45:00.953Z,0.90
2023-04-03T09:50:20.222Z,1.08
2023-04-03T09:55:28.420Z,1.10
2023-04-03T10:00:39.593Z,1.10
2023-04-03T10:05:42.749Z,1.00
2023-04-03T10:10:49.457Z,1.10
2023-04-03T10:15:59.211Z,0.75
2023-04-03T10:21:12.042Z,1.10
2023-04-03T10:26:41.056Z,1.02
2023-04-03T10:32:24.153Z,1.00
2023-04-03T10:37:52.561Z,0.77
2023-04-03T10:43:09.611Z,1.10
2023-04-03T10:48:33.058Z,0.70
2023-04-03T10:53:54.121Z,0.60
2023-04-03T10:59:08.334Z,0.60
2023-04-03T11:04:12.071Z,0.70
2023-04-03T11:09:29.738Z,0.60
2023-04-03T11:14:36.024Z,0.77
2023-04-03T11:20:07.810Z,0.75
2023-04-03T11:25:09.972Z,0.60
2023-04-03T11:31:01.380Z,0.40
2023-04-03T11:36:25.865Z,0.38
2023-04-03T11:41:33.135Z,0.40
2023-04-03T11:46:54.284Z,0.50
2023-04-03T11:51:59.000Z,0.57
2023-04-03T11:57:01.052Z,0.50
2023-04-03T12:02:04.607Z,0.77
2023-04-03T12:07:18.868Z,0.70
2023-04-03T12:12:37.946Z,0.73
2023-04-03T12:17:41.214Z,0.90
2023-04-03T12:23:23.947Z,0.65
2023-04-03T12:28:27.681Z,0.90
2023-04-03T12:33:57.677Z,0.70
2023-04-03T12:39:12.009Z,0.70
2023-04-03T12:44:27.944Z,1.00
2023-04-03T12:49:29.901Z,1.00
2023-04-03T12:54:43.130Z,0.70
2023-04-03T12:59:47.407Z,0.70
2023-04-03T13:04:50.399Z,0.90
2023-04-03T13:10:09.733Z,0.73
2023-04-03T13:15:27.658Z,0.85
2023-04-03T13:20:35.191Z,0.88
2023-04-03T13:25:41.702Z,1.10
2023-04-03T13:31:02.797Z,1.13
2023-04-03T13:41:26.620Z,1.20
2023-04-03T13:46:29.136Z,1.08
2023-04-03T13:51:31.521Z,1.10
2023-04-03T13:56:38.625Z,1.73
2023-04-03T14:01:47.122Z,0.90
2023-04-03T14:06:50.131Z,1.35
2023-04-03T14:11:56.622Z,1.17
2023-04-03T14:17:02.385Z,1.15
2023-04-03T14:22:16.545Z,1.10
2023-04-03T14:27:25.580Z,1.30
2023-04-03T14:32:28.408Z,1.10
2023-04-03T14:37:32.026Z,1.10
2023-04-03T14:42:36.661Z,1.30
2023-04-03T14:48:00.403Z,8.30
2023-04-03T14:53:02.762Z,0.95
2023-04-03T14:58:05.880Z,1.42
2023-04-03T15:03:13.789Z,1.33
2023-04-03T15:08:24.713Z,1.38
2023-04-03T15:13:26.846Z,1.50
2023-04-03T15:18:38.446Z,1.30
2023-04-03T15:23:40.501Z,1.27
2023-04-03T15:28:44.719Z,1.15
2023-04-03T15:33:46.786Z,1.35
2023-04-03T15:38:48.862Z,1.40
2023-04-03T15:43:51.014Z,0.98
2023-04-03T15:48:53.332Z,1.25
2023-04-03T15:53:55.587Z,1.55
2023-04-03T15:58:57.748Z,1.40
2023-04-03T16:03:59.803Z,1.52
2023-04-03T16:09:02.008Z,10.65
2023-04-03T16:14:04.267Z,1.52
2023-04-03T16:19:07.083Z,1.85
2023-04-03T16:24:09.968Z,1.95
2023-04-03T16:29:12.029Z,1.50
2023-04-03T16:34:14.199Z,1.58
2023-04-03T16:39:16.936Z,1.30
2023-04-03T16:44:19.638Z,1.42
2023-04-03T16:49:21.775Z,1.40
2023-04-03T16:54:23.992Z,1.77
2023-04-03T16:59:26.327Z,1.50
2023-04-03T17:04:28.628Z,1.80
2023-04-03T17:09:30.908Z,2.28
2023-04-03T17:14:33.139Z,1.80
2023-04-03T17:19:37.982Z,1.67
2023-04-03T17:24:40.085Z,1.38
2023-04-03T17:29:42.392Z,1.75
2023-04-03T17:34:47.135Z,1.60
2023-04-03T17:39:49.256Z,1.55
2023-04-03T17:44:51.355Z,1.75
2023-04-03T17:49:53.502Z,1.80
2023-04-03T17:54:55.976Z,1.90
2023-04-03T17:59:58.277Z,1.90
2023-04-03T18:05:00.531Z,1.48
2023-04-03T18:10:08.760Z,1.65
2023-04-03T18:15:11.791Z,1.55
2023-04-03T18:20:15.142Z,2.05
2023-04-03T18:25:18.104Z,1.70
2023-04-03T18:30:20.314Z,1.60
2023-04-03T18:35:22.579Z,2.03
2023-04-03T18:40:24.770Z,2.15
2023-04-03T18:45:27.215Z,2.22
2023-04-03T18:50:29.430Z,2.10
2023-04-03T18:55:32.047Z,2.22
2023-04-03T19:00:34.461Z,1.95
2023-04-03T19:05:37.356Z,2.17
2023-04-03T19:10:39.444Z,2.33
2023-04-03T19:15:42.200Z,2.22
2023-04-03T19:20:44.342Z,2.70
2023-04-03T19:25:46.495Z,2.33
2023-04-03T19:30:48.739Z,2.35
2023-04-03T19:35:50.901Z,2.28
2023-04-03T19:40:53.614Z,2.58
2023-04-03T19:45:55.647Z,2.22
2023-04-03T19:50:57.776Z,2.50
2023-04-03T19:56:00.745Z,2.38
2023-04-03T20:01:02.765Z,2.30
2023-04-03T20:06:05.120Z,2.08
2023-04-03T20:11:07.689Z,2.78
2023-04-03T20:16:10.151Z,2.60
2023-04-03T20:21:12.494Z,2.85
2023-04-03T20:26:24.483Z,2.20
2023-04-03T20:31:28.095Z,2.30
2023-04-03T20:36:31.112Z,2.05
2023-04-03T20:41:35.494Z,2.83
2023-04-03T20:46:51.325Z,2.85
2023-04-03T20:51:54.738Z,2.42
2023-04-03T20:56:56.765Z,2.60
2023-04-03T21:01:58.803Z,2.60
2023-04-03T21:07:38.969Z,2.63
2023-04-03T21:13:20.877Z,2.20
2023-04-03T21:18:48.213Z,2.70
2023-04-03T21:23:51.840Z,2.70
2023-04-03T21:28:54.150Z,2.95
2023-04-03T21:33:56.156Z,3.00
2023-04-03T21:38:58.834Z,2.70
2023-04-03T21:44:01.182Z,2.63
2023-04-03T21:49:03.815Z,2.33
2023-04-03T21:54:05.999Z,2.83
2023-04-03T21:59:08.244Z,3.05
2023-04-03T22:04:10.852Z,2.85
2023-04-03T22:09:13.054Z,2.70
2023-04-03T22:14:15.447Z,4.05
2023-04-03T22:19:17.533Z,3.80
2023-04-03T22:24:20.315Z,2.83
2023-04-03T22:29:22.437Z,2.75
2023-04-03T22:34:24.455Z,2.60
2023-04-03T22:39:26.479Z,2.33
2023-04-03T22:44:34.914Z,2.08
2023-04-03T22:49:39.162Z,2.97
2023-04-03T22:54:41.359Z,2.53
2023-04-03T22:59:43.396Z,2.58
2023-04-03T23:04:46.503Z,2.70
2023-04-03T23:09:48.628Z,2.65
2023-04-03T23:14:50.689Z,2.78
2023-04-03T23:19:52.839Z,2.67
2023-04-03T23:24:55.007Z,2.80
2023-04-03T23:29:57.058Z,3.00
2023-04-03T23:34:59.017Z,3.03
2023-04-03T23:40:02.248Z,2.92
2023-04-03T23:45:04.599Z,2.50
2023-04-03T23:50:07.035Z,3.40
2023-04-03T23:55:09.292Z,2.83
